Etusivu
METAR-TAF:

METAR-TAF

Lentoasemat :

Khartum, Sudan

Leveyspiiri: 15-36N, Pituuspiiri: 032-33E, korkeus merenpinnasta: 382 m

Tämänhetkinen sää

Tämä raportti tehtiin 24 minuuttia sitten, kello 21.30 UTC
Tuuli 7 kn pohjoisesta
Lämpötila 26°C
Kosteus 26%
Ilmanpaine 1014 hPa
Näkyvyys 10 km tai enemmän
ei pilviä alle 1500 m:ssä eikä cumulonimbus-pilviä

METAR: HSSS 122130Z 36007KT CAVOK 26/05 Q1014 NOSIG

Aika: 00:54 (21:54 UTC)

Sääennuste

Tämä raportti tehtiin 4 tuntia ja 54 minuuttia sitten, kello 17.00 UTC
Ennuste voimassa 12. päivästä klo 18 UTC - 13. päivään klo 24 UTC
Tuuli 6 kn pohjoisesta
Näkyvyys 10 km tai enemmän
ei pilviä alle 1500 m:ssä eikä cumulonimbus-pilviä
Ajoittain
12. päivästä klo 18 UTC - 13. päivään klo 00 UTC
Näkyvyys: 4000 m
usvaa
Ajoittain
13. päivästä klo 00 UTC - 13. päivään klo 09 UTC
Näkyvyys: 6000 m

TAF: HSSS 121700Z 1218/1324 36006KT CAVOK TEMPO 1218/1300 4000 HZ TEMPO 1300/1309 6000

Säähavainnot ja -ennusteet yli 4000 lentoasemalta (METAR- ja TAF-raportit).

Käytössä olevat sääasemat on merkitty karttaan keltaisilla ja punaisilla pisteillä.

Aseta hiiri pisteen päälle nähdäksesi sääaseman nimen.

Klikkaa sitten nähdäksesi säähavainnot ja -ennusteet.

Kartan vaihtaminen: klikkaa mustalla rastilla varustettuja vihreitä pisteitä, niin voit zoomata sisään; viivalla varustettua vihreää pistettä, niin voit zoomata ulos tai vihreitä nuolia, niin pääset viereisille kartoille.


METAR-TAF: